Glendale, Oregon
Current Conditions -  °F | °C
As of 5:56 AM on Tuesday 21 Oct 2014 (Local Time) from KSXT Reporting Station
Moderate Fog Moderate Fog  
Wind Chill: 33°   Ceiling: 200
Heat Index: 40°   Visibility: 0.25mi
Dew Point: 40°   Wind: 13mph
Humidity: 100%   Direction: 190°S
Pressure: 30.02"   Gusts: 21mph
Location:  42.74°N, 123.42°W
Report Text: KSXT 211256Z AUTO 19011G18KT 1/4SM FG VV002 04/04 A3002 RMK AO2 RAE38 SLP170 P0002 T00440044
Loading
Personal Weather Stations






























Interactive Weather Map
Tropical Storm Tracking
New forecast layout! Learn more

10-Day Weather Forecast

Advertisements
Track Severe Weather on mobile